Time;durP1;ratioP1;P1;durP2;ratioP2;P2;SDS_P1;SDS_P2;PMS_P1;PMS_P2;Temp;Humidity;BMP_temperature;BMP_pressure;BME280_temperature;BME280_humidity;BME280_pressure;Samples;Min_cycle;Max_cycle;Signal;HPM_P1;HPM_P2
2022/11/05 00:09:59;;;;;;;18.43;14.03;;;;;;;;;;4914073;29;20530;-80
2022/11/05 00:18:05;;;;;;;23.33;16.03;;;;;;;;;;5019567;28;20465;-78
2022/11/05 00:20:31;;;;;;;22.00;14.93;;;;;;;;;;5000077;28;20937;-80
2022/11/05 00:25:56;;;;;;;22.83;16.43;;;;;;;;;;5017276;28;20484;-80
2022/11/05 00:28:22;;;;;;;24.43;15.87;;;;;;;;;;5020548;28;20982;-81
2022/11/05 00:30:48;;;;;;;17.83;15.20;;;;;;;;;;5014541;28;20470;-79
2022/11/05 00:33:14;;;;;;;21.83;14.90;;;;;;;;;;5016643;28;20466;-79
2022/11/05 00:35:40;;;;;;;25.03;16.07;;;;;;;;;;5016513;28;20440;-78
2022/11/05 00:38:06;;;;;;;21.33;15.50;;;;;;;;;;5019021;28;20956;-80
2022/11/05 00:40:32;;;;;;;20.93;15.17;;;;;;;;;;5015938;28;20427;-77
2022/11/05 00:45:43;;;;;;;28.47;19.77;;;;;;;;;;5029417;28;20625;-79
2022/11/05 00:50:54;;;;;;;21.87;14.17;;;;;;;;;;5008702;28;20486;-79
2022/11/05 00:53:21;;;;;;;24.93;15.00;;;;;;;;;;5019948;28;20503;-78
2022/11/05 00:55:47;;;;;;;20.40;14.37;;;;;;;;;;5013034;28;20457;-79
2022/11/05 00:58:14;;;;;;;18.83;13.93;;;;;;;;;;5018601;28;20465;-79
2022/11/05 01:00:42;;;;;;;16.27;13.00;;;;;;;;;;5014321;28;20468;-79
2022/11/05 01:03:09;;;;;;;22.20;13.63;;;;;;;;;;5016436;28;20427;-78
2022/11/05 01:05:38;;;;;;;14.82;12.40;;;;;;;;;;5017302;28;20454;-79
2022/11/05 01:08:04;;;;;;;12.77;11.47;;;;;;;;;;5005084;28;20191;-80
2022/11/05 01:10:30;;;;;;;16.93;12.60;;;;;;;;;;5014990;28;20450;-79
2022/11/05 01:12:56;;;;;;;15.70;13.23;;;;;;;;;;5013886;28;20438;-79
2022/11/05 01:15:22;;;;;;;14.07;12.57;;;;;;;;;;4994609;28;20446;-80
2022/11/05 01:17:50;;;;;;;14.30;11.87;;;;;;;;;;5014296;28;20467;-78
2022/11/05 01:20:17;;;;;;;15.27;13.67;;;;;;;;;;4990488;28;20747;-79
2022/11/05 01:22:43;;;;;;;15.20;10.70;;;;;;;;;;5007054;28;20427;-80
2022/11/05 01:25:09;;;;;;;15.23;12.43;;;;;;;;;;4991613;28;20861;-78
2022/11/05 01:27:36;;;;;;;27.80;19.67;;;;;;;;;;5016695;28;20501;-78
2022/11/05 01:30:03;;;;;;;19.60;13.70;;;;;;;;;;4990475;28;20439;-80
2022/11/05 01:32:29;;;;;;;16.03;14.20;;;;;;;;;;5017876;28;20493;-80
2022/11/05 01:34:55;;;;;;;13.93;12.53;;;;;;;;;;5006512;28;21014;-79
2022/11/05 01:37:21;;;;;;;16.27;12.63;;;;;;;;;;5017490;28;20461;-80
2022/11/05 01:39:47;;;;;;;13.35;12.00;;;;;;;;;;5006185;28;20452;-79
2022/11/05 01:42:21;;;;;;;16.70;13.60;;;;;;;;;;5014390;28;20239;-79
2022/11/05 01:44:58;;;;;;;15.33;11.90;;;;;;;;;;5011118;28;20430;-80
2022/11/05 01:47:31;;;;;;;16.58;12.60;;;;;;;;;;5017173;28;20422;-80
2022/11/05 01:49:58;;;;;;;19.63;15.90;;;;;;;;;;5002848;28;20494;-79
2022/11/05 01:52:26;;;;;;;15.13;13.63;;;;;;;;;;5022723;28;20271;-80
2022/11/05 01:54:52;;;;;;;13.10;10.23;;;;;;;;;;5004794;28;20451;-80
2022/11/05 01:57:18;;;;;;;18.63;12.88;;;;;;;;;;5019811;28;20470;-80
2022/11/05 01:59:47;;;;;;;18.40;13.40;;;;;;;;;;5014945;28;20604;-81
2022/11/05 02:02:14;;;;;;;15.30;12.47;;;;;;;;;;5013683;28;20798;-78
2022/11/05 02:04:52;;;;;;;12.57;11.30;;;;;;;;;;5010202;28;20586;-80
2022/11/05 02:07:19;;;;;;;12.52;11.27;;;;;;;;;;5015093;28;20506;-78
2022/11/05 02:09:48;;;;;;;15.90;11.30;;;;;;;;;;5012572;28;20284;-80
2022/11/05 02:12:14;;;;;;;13.40;12.00;;;;;;;;;;5015795;28;20434;-79
2022/11/05 02:14:40;;;;;;;17.10;11.88;;;;;;;;;;5003158;28;20444;-79
2022/11/05 02:17:06;;;;;;;13.17;11.07;;;;;;;;;;5017664;28;20204;-79
2022/11/05 02:19:51;;;;;;;14.07;11.50;;;;;;;;;;5002278;28;20934;-79
2022/11/05 02:22:35;;;;;;;15.80;12.23;;;;;;;;;;5021235;28;20466;-79
2022/11/05 02:25:04;;;;;;;15.77;11.90;;;;;;;;;;4983805;28;20442;-79
2022/11/05 02:27:36;;;;;;;13.87;12.30;;;;;;;;;;5016401;28;20505;-79
2022/11/05 02:30:23;;;;;;;19.90;13.20;;;;;;;;;;5010336;28;20458;-80
2022/11/05 02:32:58;;;;;;;18.88;14.23;;;;;;;;;;5016024;28;20423;-78
2022/11/05 02:35:30;;;;;;;15.83;13.33;;;;;;;;;;5013212;28;20223;-79
2022/11/05 02:38:04;;;;;;;14.93;13.20;;;;;;;;;;5013680;28;20498;-79
2022/11/05 02:40:36;;;;;;;20.80;18.07;;;;;;;;;;5009798;28;20234;-79
2022/11/05 02:43:13;;;;;;;21.30;16.33;;;;;;;;;;4992547;28;20419;-79
2022/11/05 02:45:45;;;;;;;30.48;17.85;;;;;;;;;;5012690;28;20435;-79
2022/11/05 02:48:17;;;;;;;21.67;17.33;;;;;;;;;;5020048;28;20184;-79
2022/11/05 02:51:05;;;;;;;18.30;15.07;;;;;;;;;;4992449;28;20570;-79
2022/11/05 02:53:41;;;;;;;19.73;17.63;;;;;;;;;;5014394;28;20196;-79
2022/11/05 02:56:19;;;;;;;23.63;19.10;;;;;;;;;;5004727;28;20477;-79
2022/11/05 02:58:46;;;;;;;16.48;14.80;;;;;;;;;;5006487;28;20438;-80
2022/11/05 03:01:12;;;;;;;25.95;17.63;;;;;;;;;;5012227;28;20654;-80
2022/11/05 03:03:48;;;;;;;26.27;16.65;;;;;;;;;;5009473;28;20199;-78
2022/11/05 03:06:14;;;;;;;22.40;16.23;;;;;;;;;;5013943;28;20556;-79
2022/11/05 03:08:54;;;;;;;22.90;17.57;;;;;;;;;;5011597;28;20545;-80
2022/11/05 03:11:21;;;;;;;18.73;15.80;;;;;;;;;;5012170;28;20435;-79
2022/11/05 03:13:55;;;;;;;22.33;16.45;;;;;;;;;;5009929;28;20459;-79
2022/11/05 03:16:28;;;;;;;17.53;15.30;;;;;;;;;;5018679;28;20669;-79
2022/11/05 03:19:00;;;;;;;26.83;17.20;;;;;;;;;;5012609;28;20462;-78
2022/11/05 03:21:32;;;;;;;16.80;15.03;;;;;;;;;;5017447;28;20422;-79
2022/11/05 03:24:10;;;;;;;23.73;16.23;;;;;;;;;;5014119;28;20956;-79
2022/11/05 03:26:43;;;;;;;21.75;17.00;;;;;;;;;;5011908;28;20440;-79
2022/11/05 03:29:11;;;;;;;18.10;14.90;;;;;;;;;;5012729;28;20279;-78
2022/11/05 03:31:38;;;;;;;20.40;16.13;;;;;;;;;;5024846;28;20733;-79
2022/11/05 03:34:06;;;;;;;18.37;14.90;;;;;;;;;;5000721;28;20463;-79
2022/11/05 03:36:39;;;;;;;17.73;15.20;;;;;;;;;;5005328;28;20814;-79
2022/11/05 03:39:07;;;;;;;17.83;14.98;;;;;;;;;;4989031;28;20467;-80
2022/11/05 03:41:34;;;;;;;19.48;15.77;;;;;;;;;;5020340;28;20181;-80
2022/11/05 03:44:03;;;;;;;17.60;14.73;;;;;;;;;;5017263;28;20259;-79
2022/11/05 03:46:31;;;;;;;21.83;16.70;;;;;;;;;;5017648;28;20428;-78
2022/11/05 03:48:58;;;;;;;22.50;17.10;;;;;;;;;;5013082;28;20474;-79
2022/11/05 03:51:35;;;;;;;24.37;17.60;;;;;;;;;;5007969;28;20568;-79
2022/11/05 03:54:03;;;;;;;20.30;16.00;;;;;;;;;;5006316;28;20441;-79
2022/11/05 03:56:32;;;;;;;19.60;16.40;;;;;;;;;;5016224;28;20439;-79
2022/11/05 03:59:00;;;;;;;19.38;17.27;;;;;;;;;;5012690;28;20438;-79
2022/11/05 04:01:26;;;;;;;22.53;16.10;;;;;;;;;;5018665;28;20183;-79
2022/11/05 04:03:52;;;;;;;23.13;17.63;;;;;;;;;;5016393;28;20468;-79
2022/11/05 04:14:32;;;;;;;19.17;16.07;;;;;;;;;;5014367;28;20294;-79
2022/11/05 04:17:08;;;;;;;21.20;18.33;;;;;;;;;;5018821;28;20458;-79
2022/11/05 04:25:16;;;;;;;24.97;21.03;;;;;;;;;;5003270;28;20508;-79
2022/11/05 04:27:42;;;;;;;29.23;21.73;;;;;;;;;;5016472;28;20431;-79
2022/11/05 04:30:18;;;;;;;34.28;22.88;;;;;;;;;;5017460;28;20440;-79
2022/11/05 04:32:56;;;;;;;29.93;20.40;;;;;;;;;;5015912;28;20673;-79
2022/11/05 04:35:22;;;;;;;31.93;23.03;;;;;;;;;;5016696;28;20497;-79
2022/11/05 04:37:49;;;;;;;29.50;23.07;;;;;;;;;;4998355;28;20504;-79
2022/11/05 04:40:15;;;;;;;29.60;22.27;;;;;;;;;;5012659;28;20435;-79
2022/11/05 04:42:41;;;;;;;26.95;21.10;;;;;;;;;;5014191;28;20427;-79
2022/11/05 04:45:07;;;;;;;29.13;21.60;;;;;;;;;;5010664;28;20734;-80
2022/11/05 04:47:33;;;;;;;24.23;20.67;;;;;;;;;;5011040;28;20493;-79
2022/11/05 04:49:59;;;;;;;26.03;20.43;;;;;;;;;;5019469;28;20989;-81
2022/11/05 04:52:25;;;;;;;27.63;18.20;;;;;;;;;;5017404;28;20431;-78
2022/11/05 04:54:51;;;;;;;29.17;19.80;;;;;;;;;;5016006;28;20439;-80
2022/11/05 04:57:17;;;;;;;25.00;20.27;;;;;;;;;;5015131;28;20469;-78
2022/11/05 04:59:43;;;;;;;21.60;19.30;;;;;;;;;;5011354;28;20809;-79
2022/11/05 05:02:09;;;;;;;26.30;19.40;;;;;;;;;;5013884;28;20652;-79
2022/11/05 05:04:35;;;;;;;27.03;22.50;;;;;;;;;;5014903;28;20956;-79
2022/11/05 05:07:01;;;;;;;27.30;19.75;;;;;;;;;;4318469;28;10022490;-77
2022/11/05 05:09:27;;;;;;;29.27;20.20;;;;;;;;;;5007353;28;20464;-79
2022/11/05 05:11:53;;;;;;;25.83;20.87;;;;;;;;;;5003659;28;20179;-79
2022/11/05 05:14:19;;;;;;;31.67;20.02;;;;;;;;;;5012140;28;20435;-78
2022/11/05 05:16:45;;;;;;;26.30;20.77;;;;;;;;;;5008587;28;20287;-78
2022/11/05 05:19:11;;;;;;;26.27;19.43;;;;;;;;;;4998887;28;20302;-79
2022/11/05 05:21:37;;;;;;;28.93;20.57;;;;;;;;;;5014867;28;20424;-79
2022/11/05 05:24:07;;;;;;;27.30;19.70;;;;;;;;;;5012871;28;20514;-79
2022/11/05 05:26:33;;;;;;;29.00;20.13;;;;;;;;;;4995998;28;20432;-79
2022/11/05 05:28:59;;;;;;;30.20;18.90;;;;;;;;;;5014304;28;20230;-78
2022/11/05 05:31:25;;;;;;;24.73;19.27;;;;;;;;;;5009721;28;20446;-78
2022/11/05 05:33:55;;;;;;;29.43;21.07;;;;;;;;;;4991509;28;20456;-77
2022/11/05 05:36:21;;;;;;;26.87;22.00;;;;;;;;;;5000348;28;20513;-77
2022/11/05 05:38:47;;;;;;;35.67;22.37;;;;;;;;;;4653302;28;10000588;-77
2022/11/05 05:41:13;;;;;;;27.35;19.67;;;;;;;;;;5012812;28;20172;-79
2022/11/05 05:43:39;;;;;;;32.83;21.40;;;;;;;;;;4988717;28;20192;-79
2022/11/05 05:46:06;;;;;;;27.73;21.00;;;;;;;;;;4993194;28;20475;-78
2022/11/05 05:48:33;;;;;;;29.52;20.60;;;;;;;;;;5014985;28;20192;-79
2022/11/05 05:51:00;;;;;;;27.93;19.90;;;;;;;;;;5016373;28;20450;-79
2022/11/05 05:53:26;;;;;;;25.83;20.67;;;;;;;;;;5005053;28;20696;-79
2022/11/05 05:55:53;;;;;;;33.50;22.63;;;;;;;;;;5013305;28;20176;-79
2022/11/05 05:58:19;;;;;;;35.03;21.20;;;;;;;;;;5011230;28;20287;-78
2022/11/05 06:00:45;;;;;;;29.40;19.30;;;;;;;;;;4998966;28;20459;-79
2022/11/05 06:03:11;;;;;;;29.50;21.90;;;;;;;;;;5011002;28;20469;-78
2022/11/05 06:05:37;;;;;;;31.47;22.10;;;;;;;;;;5012271;28;20426;-78
2022/11/05 06:08:03;;;;;;;30.43;22.00;;;;;;;;;;4987366;28;20441;-80
2022/11/05 06:10:29;;;;;;;30.13;21.85;;;;;;;;;;5012193;28;20435;-79
2022/11/05 06:12:55;;;;;;;30.83;22.07;;;;;;;;;;5000937;28;20267;-79
2022/11/05 06:15:21;;;;;;;30.77;23.50;;;;;;;;;;5018133;28;20502;-80
2022/11/05 06:17:48;;;;;;;31.87;21.50;;;;;;;;;;5018462;28;20494;-79
2022/11/05 06:20:14;;;;;;;32.07;22.57;;;;;;;;;;4987588;28;21027;-78
2022/11/05 06:22:40;;;;;;;31.20;20.85;;;;;;;;;;5002156;28;20432;-78
2022/11/05 06:25:06;;;;;;;29.23;22.33;;;;;;;;;;5017187;28;20271;-80
2022/11/05 06:27:32;;;;;;;35.47;23.33;;;;;;;;;;5001090;28;20428;-79
2022/11/05 06:29:58;;;;;;;65.50;39.75;;;;;;;;;;4997696;28;20544;-78
2022/11/05 06:32:25;;;;;;;30.80;21.30;;;;;;;;;;4999257;28;20553;-77
2022/11/05 06:34:51;;;;;;;35.40;22.83;;;;;;;;;;4997611;28;20452;-79
2022/11/05 06:37:17;;;;;;;32.17;22.90;;;;;;;;;;5003426;28;20542;-80
2022/11/05 06:39:43;;;;;;;34.57;25.20;;;;;;;;;;5014590;28;20427;-79
2022/11/05 06:42:09;;;;;;;47.77;26.50;;;;;;;;;;5002873;28;20488;-79
2022/11/05 06:44:35;;;;;;;39.35;27.10;;;;;;;;;;5014912;28;20442;-79
2022/11/05 06:47:01;;;;;;;41.23;25.63;;;;;;;;;;5002405;28;20693;-79
2022/11/05 06:49:27;;;;;;;44.60;22.17;;;;;;;;;;5015554;28;20423;-78
2022/11/05 06:51:53;;;;;;;46.73;26.37;;;;;;;;;;4984800;28;20428;-78
2022/11/05 06:54:19;;;;;;;33.60;23.40;;;;;;;;;;5012872;28;20447;-78
2022/11/05 06:56:45;;;;;;;34.07;23.10;;;;;;;;;;4988571;28;20589;-78
2022/11/05 06:59:12;;;;;;;35.40;24.80;;;;;;;;;;5022048;28;20493;-78
2022/11/05 07:01:38;;;;;;;28.90;22.47;;;;;;;;;;5005526;28;20552;-78
2022/11/05 07:04:04;;;;;;;35.80;24.60;;;;;;;;;;5021682;28;20860;-79
2022/11/05 07:06:30;;;;;;;29.65;21.98;;;;;;;;;;5009340;28;20527;-80
2022/11/05 07:08:56;;;;;;;33.85;22.63;;;;;;;;;;5027024;28;20184;-79
2022/11/05 07:11:22;;;;;;;39.00;23.93;;;;;;;;;;5012626;28;20235;-79
2022/11/05 07:13:48;;;;;;;30.37;22.30;;;;;;;;;;5005447;28;20932;-79
2022/11/05 07:16:14;;;;;;;31.38;22.30;;;;;;;;;;5010333;28;20597;-80
2022/11/05 07:18:40;;;;;;;30.40;24.37;;;;;;;;;;5016205;28;20220;-77
2022/11/05 07:21:06;;;;;;;30.43;21.77;;;;;;;;;;5009167;28;20497;-79
2022/11/05 07:23:32;;;;;;;29.87;22.40;;;;;;;;;;5015676;28;20423;-79
2022/11/05 07:25:59;;;;;;;30.60;22.90;;;;;;;;;;5008580;28;20436;-78
2022/11/05 07:28:25;;;;;;;26.90;18.33;;;;;;;;;;5015291;28;20439;-78
2022/11/05 07:30:51;;;;;;;29.75;20.90;;;;;;;;;;5012465;28;20631;-78
2022/11/05 07:33:17;;;;;;;33.88;21.23;;;;;;;;;;5011651;28;20591;-80
2022/11/05 07:35:43;;;;;;;29.77;21.00;;;;;;;;;;5012813;28;20209;-78
2022/11/05 07:38:09;;;;;;;27.53;20.73;;;;;;;;;;5013369;28;20469;-78
2022/11/05 07:40:35;;;;;;;27.73;20.40;;;;;;;;;;4994824;28;20793;-80
2022/11/05 07:43:01;;;;;;;31.60;21.47;;;;;;;;;;5012161;28;20427;-78
2022/11/05 07:45:28;;;;;;;24.13;17.95;;;;;;;;;;5017906;28;20558;-77
2022/11/05 07:48:01;;;;;;;30.65;20.88;;;;;;;;;;5023937;28;20263;-78
2022/11/05 07:50:31;;;;;;;26.87;20.30;;;;;;;;;;5013420;28;20183;-76
2022/11/05 07:53:01;;;;;;;27.73;22.10;;;;;;;;;;5016685;28;21145;-79
2022/11/05 07:55:27;;;;;;;30.03;19.50;;;;;;;;;;5011412;28;20558;-77
2022/11/05 07:57:53;;;;;;;23.33;19.03;;;;;;;;;;5019278;28;20454;-77
2022/11/05 08:00:21;;;;;;;23.13;18.60;;;;;;;;;;4992149;28;20440;-78
2022/11/05 08:02:59;;;;;;;27.93;17.67;;;;;;;;;;5021017;28;20839;-77
2022/11/05 08:05:25;;;;;;;20.67;18.50;;;;;;;;;;5016202;28;21016;-78
2022/11/05 08:07:53;;;;;;;21.93;17.20;;;;;;;;;;5019622;28;20431;-78
2022/11/05 08:10:19;;;;;;;21.43;17.17;;;;;;;;;;5007039;28;20450;-78
2022/11/05 08:12:48;;;;;;;21.47;16.97;;;;;;;;;;5014481;28;20518;-81
2022/11/05 08:15:14;;;;;;;22.70;18.47;;;;;;;;;;5005603;28;20533;-77
2022/11/05 08:17:40;;;;;;;21.83;18.23;;;;;;;;;;5009339;28;20467;-78
2022/11/05 08:20:07;;;;;;;21.37;16.10;;;;;;;;;;5014265;28;20471;-79
2022/11/05 08:22:33;;;;;;;25.20;16.90;;;;;;;;;;5015457;28;20423;-79
2022/11/05 08:24:59;;;;;;;19.30;15.20;;;;;;;;;;5006510;28;20451;-78
2022/11/05 08:27:25;;;;;;;21.17;16.67;;;;;;;;;;4994716;28;20452;-77
2022/11/05 08:29:57;;;;;;;23.10;16.83;;;;;;;;;;5003659;28;20961;-77
2022/11/05 08:32:25;;;;;;;16.43;14.47;;;;;;;;;;5005157;28;20458;-78
2022/11/05 08:34:51;;;;;;;16.90;14.33;;;;;;;;;;5012852;28;20459;-77
2022/11/05 08:37:18;;;;;;;16.27;13.00;;;;;;;;;;5002387;28;20586;-77
2022/11/05 08:39:44;;;;;;;20.20;13.47;;;;;;;;;;5013419;28;20450;-80
2022/11/05 08:42:10;;;;;;;13.37;11.10;;;;;;;;;;5015531;28;20518;-77
2022/11/05 08:44:36;;;;;;;15.17;12.43;;;;;;;;;;5009060;28;20479;-78
2022/11/05 08:47:02;;;;;;;21.33;17.30;;;;;;;;;;5017470;28;20423;-78
2022/11/05 08:49:28;;;;;;;16.63;12.30;;;;;;;;;;4984629;28;20471;-78
2022/11/05 08:51:57;;;;;;;14.73;12.53;;;;;;;;;;5009207;28;20416;-76
2022/11/05 08:54:23;;;;;;;15.90;12.40;;;;;;;;;;4989704;28;20424;-77
2022/11/05 08:56:49;;;;;;;10.53;8.90;;;;;;;;;;5017996;28;20476;-77
2022/11/05 08:59:15;;;;;;;11.00;10.03;;;;;;;;;;5013587;28;20980;-78
2022/11/05 09:01:42;;;;;;;10.00;9.00;;;;;;;;;;5022582;28;20422;-76
2022/11/05 09:04:08;;;;;;;8.53;7.73;;;;;;;;;;5004334;28;20456;-78
2022/11/05 09:06:34;;;;;;;9.17;8.40;;;;;;;;;;5016828;28;20430;-78
2022/11/05 09:09:00;;;;;;;9.47;8.23;;;;;;;;;;5007392;28;20431;-84
2022/11/05 09:11:26;;;;;;;8.20;7.50;;;;;;;;;;5002282;28;20462;-78
2022/11/05 09:13:52;;;;;;;10.60;8.10;;;;;;;;;;5006491;28;20435;-79
2022/11/05 09:16:26;;;;;;;8.69;7.79;;;;;;;;;;4945019;28;10000683;-76
2022/11/05 09:18:52;;;;;;;7.10;6.70;;;16.80;99.90;;;;;;5013837;28;20482;-76
2022/11/05 09:21:18;;;;;;;9.40;8.40;;;;;;;;;;5002312;28;20431;-77
2022/11/05 09:23:45;;;;;;;8.07;7.57;;;;;;;;;;5011402;28;20220;-77
2022/11/05 09:26:12;;;;;;;9.30;8.60;;;;;;;;;;5010112;28;20436;-77
2022/11/05 09:28:38;;;;;;;8.83;8.03;;;;;;;;;;4998632;28;20859;-77
2022/11/05 09:31:08;;;;;;;9.20;8.30;;;;;;;;;;5003877;28;20753;-77
2022/11/05 09:33:35;;;;;;;8.27;7.67;;;;;;;;;;4979374;28;20457;-78
2022/11/05 09:36:01;;;;;;;9.80;8.37;;;;;;;;;;5014032;28;20431;-78
2022/11/05 09:38:27;;;;;;;9.33;8.63;;;;;;;;;;5013627;28;20478;-79
2022/11/05 09:40:57;;;;;;;9.40;8.50;;;;;;;;;;5019314;28;20530;-78
2022/11/05 09:43:25;;;;;;;12.50;8.93;;;;;;;;;;4996600;28;20481;-76
2022/11/05 09:45:55;;;;;;;8.90;8.07;;;;;;;;;;5013125;28;21199;-78
2022/11/05 09:48:24;;;;;;;8.13;7.33;;;;;;;;;;5012232;28;20504;-78
2022/11/05 09:50:51;;;;;;;8.90;8.03;;;;;;;;;;5002434;28;20447;-78
2022/11/05 09:53:18;;;;;;;9.10;8.40;;;;;;;;;;5017664;28;20430;-78
2022/11/05 09:55:49;;;;;;;9.10;8.20;;;;;;;;;;5007174;28;20730;-77
2022/11/05 09:58:34;;;;;;;9.30;8.57;;;;;;;;;;5014445;28;20466;-79
2022/11/05 10:01:00;;;;;;;10.20;9.20;;;;;;;;;;4989521;28;20454;-78
2022/11/05 10:03:27;;;;;;;9.20;8.40;;;;;;;;;;5016085;28;20466;-77
2022/11/05 10:05:54;;;;;;;11.23;9.53;;;;;;;;;;5014954;28;20464;-77
2022/11/05 10:08:27;;;;;;;10.10;9.30;;;;;;;;;;5013815;28;20999;-78
2022/11/05 10:10:55;;;;;;;9.97;9.03;;;;;;;;;;5011375;28;20790;-77
2022/11/05 10:13:27;;;;;;;8.33;7.53;;;;;;;;;;5012303;28;20456;-78
2022/11/05 10:15:57;;;;;;;9.63;8.80;;;;;;;;;;5011157;28;20461;-79
2022/11/05 10:18:37;;;;;;;8.93;8.10;;;;;;;;;;5019270;28;20477;-78
2022/11/05 10:21:03;;;;;;;7.97;7.30;;;;;;;;;;4999710;28;20472;-80
2022/11/05 10:23:29;;;;;;;10.43;8.00;;;;;;;;;;4991522;28;20424;-77
2022/11/05 10:26:03;;;;;;;8.73;7.83;;;;;;;;;;4992242;28;20831;-77
2022/11/05 10:28:30;;;;;;;8.60;7.90;;;;;;;;;;4985222;28;20451;-77
2022/11/05 10:31:07;;;;;;;11.17;10.17;;;;;;;;;;5001044;28;20432;-80
2022/11/05 10:33:43;;;;;;;8.40;7.60;;;20.40;94.30;;;;;;4989833;28;20448;-77
2022/11/05 10:36:24;;;;;;;8.40;7.83;;;19.30;92.60;;;;;;4995958;28;20850;-79
2022/11/05 10:38:50;;;;;;;8.97;8.20;;;;;;;;;;4999721;28;20794;-79
2022/11/05 10:41:53;;;;;;;9.43;8.20;;;19.40;93.00;;;;;;4998072;28;20425;-79
2022/11/05 10:44:56;;;;;;;8.77;8.07;;;19.70;94.10;;;;;;4998768;28;20672;-78
2022/11/05 10:47:43;;;;;;;11.37;8.87;;;19.60;94.40;;;;;;5011661;28;20430;-79
2022/11/05 10:50:17;;;;;;;8.50;7.90;;;20.20;93.90;;;;;;5010309;28;20783;-78
2022/11/05 10:53:04;;;;;;;10.53;7.90;;;20.50;95.80;;;;;;4998754;28;20805;-78
2022/11/05 10:55:37;;;;;;;10.07;9.07;;;20.00;94.40;;;;;;4997284;28;20526;-77
2022/11/05 10:58:14;;;;;;;9.10;8.23;;;20.20;94.70;;;;;;4658083;28;9999862;-78
2022/11/05 11:00:42;;;;;;;7.97;7.40;;;19.90;95.50;;;;;;5003179;28;20447;-78
2022/11/05 11:03:30;;;;;;;8.57;7.60;;;19.10;90.80;;;;;;4993894;28;20443;-79
2022/11/05 11:06:00;;;;;;;9.47;8.60;;;;;;;;;;5004573;28;20949;-79
2022/11/05 11:08:26;;;;;;;8.90;8.20;;;17.90;90.20;;;;;;4991626;28;20603;-79
2022/11/05 11:10:56;;;;;;;12.07;8.27;;;17.20;95.20;;;;;;5004549;28;20447;-77
2022/11/05 11:13:27;;;;;;;8.67;7.87;;;17.20;95.50;;;;;;4996186;28;20489;-77
2022/11/05 11:15:54;;;;;;;10.10;9.20;;;17.00;94.70;;;;;;4995136;28;20527;-76
2022/11/05 11:18:29;;;;;;;9.50;8.57;;;17.50;96.90;;;;;;5010024;28;20848;-76
2022/11/05 11:21:25;;;;;;;9.70;8.80;;;17.10;96.10;;;;;;5015018;28;20446;-76
2022/11/05 11:23:54;;;;;;;10.87;8.70;;;17.30;97.80;;;;;;4992159;28;20474;-81
2022/11/05 11:26:20;;;;;;;8.43;7.50;;;;;;;;;;5014592;28;20493;-79
2022/11/05 11:29:07;;;;;;;8.33;7.53;;;;;;;;;;5012801;28;20485;-80
2022/11/05 11:31:36;;;;;;;12.77;9.03;;;;;;;;;;4988312;28;20770;-78
2022/11/05 11:34:05;;;;;;;7.70;7.20;;;;;;;;;;5004122;28;20495;-78
2022/11/05 11:36:34;;;;;;;9.10;7.10;;;;;;;;;;4991440;28;20418;-79
2022/11/05 11:39:01;;;;;;;9.17;8.27;;;;;;;;;;5007319;28;20459;-79
2022/11/05 11:41:30;;;;;;;8.07;7.33;;;;;;;;;;5013660;28;20426;-78
2022/11/05 11:43:59;;;;;;;7.97;7.37;;;;;;;;;;5009873;28;20443;-78
2022/11/05 11:46:29;;;;;;;8.67;7.83;;;16.70;96.50;;;;;;5012962;28;20478;-78
2022/11/05 11:48:54;;;;;;;10.90;7.90;;;16.70;98.00;;;;;;4991970;28;20451;-77
2022/11/05 11:51:36;;;;;;;7.40;6.40;;;;;;;;;;5018182;28;20526;-78
2022/11/05 11:54:03;;;;;;;11.30;7.67;;;;;;;;;;4988131;28;20208;-78
2022/11/05 11:56:31;;;;;;;8.00;7.30;;;;;;;;;;5011998;28;20718;-78
2022/11/05 11:59:14;;;;;;;9.97;7.07;;;;;;;;;;5015919;28;20984;-77
2022/11/05 12:01:49;;;;;;;6.63;6.23;;;;;;;;;;5018240;28;20423;-77
2022/11/05 12:04:15;;;;;;;9.20;8.30;;;;;;;;;;4982007;28;20872;-79
2022/11/05 12:06:55;;;;;;;8.23;7.60;;;;;;;;;;5012745;28;20430;-78
2022/11/05 12:09:33;;;;;;;8.37;7.57;;;;;;;;;;5023985;28;20445;-77
2022/11/05 12:12:07;;;;;;;9.53;6.13;;;;;;;;;;5010226;28;20429;-78
2022/11/05 12:14:51;;;;;;;6.67;6.07;;;;;;;;;;4997473;28;20609;-79
2022/11/05 12:17:35;;;;;;;8.20;7.50;;;15.40;99.90;;;;;;4998181;28;21119;-80
2022/11/05 12:20:21;;;;;;;6.87;6.10;;;15.50;99.90;;;;;;5013537;28;20955;-78
2022/11/05 12:22:58;;;;;;;7.67;6.00;;;;;;;;;;5017868;28;20431;-79
2022/11/05 12:25:25;;;;;;;6.13;5.83;;;;;;;;;;4996294;28;20951;-80
2022/11/05 12:27:54;;;;;;;8.33;5.50;;;;;;;;;;5017755;28;20430;-78
2022/11/05 12:30:21;;;;;;;9.23;5.87;;;;;;;;;;4993140;28;20440;-81
2022/11/05 12:32:47;;;;;;;10.03;5.50;;;;;;;;;;5015039;28;20446;-80
2022/11/05 12:35:31;;;;;;;12.57;6.97;;;;;;;;;;5007833;28;20549;-81
2022/11/05 12:38:16;;;;;;;6.07;5.60;;;;;;;;;;5015139;28;20469;-80
2022/11/05 12:40:49;;;;;;;6.20;5.70;;;;;;;;;;5011022;28;20457;-80
2022/11/05 12:43:23;;;;;;;5.20;4.60;;;;;;;;;;5014128;28;20426;-81
2022/11/05 12:45:56;;;;;;;7.23;5.00;;;;;;;;;;5006490;28;20438;-81
2022/11/05 12:48:22;;;;;;;4.93;4.47;;;;;;;;;;4987543;28;20451;-81
2022/11/05 12:51:06;;;;;;;6.80;3.87;;;;;;;;;;5022032;28;20439;-81
2022/11/05 12:53:44;;;;;;;5.07;4.30;;;;;;;;;;4983339;28;20431;-82
2022/11/05 12:56:16;;;;;;;4.10;3.70;;;;;;;;;;5007743;28;20458;-81
2022/11/05 12:58:45;;;;;;;4.80;4.40;;;;;;;;;;5010785;28;20485;-81
2022/11/05 13:01:15;;;;;;;4.27;3.97;;;;;;;;;;5019882;28;20442;-81
2022/11/05 13:04:10;;;;;;;4.87;4.23;;;;;;;;;;5008929;28;20435;-79
2022/11/05 13:06:41;;;;;;;3.83;3.73;;;;;;;;;;4986400;28;20847;-80
2022/11/05 13:09:16;;;;;;;5.37;4.57;;;;;;;;;;5004313;28;20686;-79
2022/11/05 13:11:57;;;;;;;4.37;3.97;;;;;;;;;;4652529;28;10000666;-80
2022/11/05 13:14:41;;;;;;;3.50;3.30;;;;;;;;;;5007422;28;20192;-80
2022/11/05 13:17:14;;;;;;;3.17;2.97;;;13.60;99.90;;;;;;5000051;28;20556;-79
2022/11/05 13:20:12;;;;;;;5.40;3.70;;;13.50;99.90;;;;;;4998830;28;20709;-80
2022/11/05 13:23:09;;;;;;;5.33;3.43;;;13.70;99.50;;;;;;5016138;28;20434;-79
2022/11/05 13:25:39;;;;;;;3.10;3.00;;;13.70;99.50;;;;;;4999611;28;20430;-78
2022/11/05 13:28:38;;;;;;;5.57;3.67;;;13.60;99.90;;;;;;5016712;28;20433;-80
2022/11/05 13:31:09;;;;;;;3.00;2.97;;;13.50;99.80;;;;;;5009744;28;20439;-79
2022/11/05 13:33:49;;;;;;;3.20;3.03;;;13.70;99.90;;;;;;5005767;28;20490;-79
2022/11/05 13:39:21;;;;;;;3.27;3.07;;;14.20;99.90;;;;;;5014938;28;20569;-79
2022/11/05 13:41:50;;;;;;;3.60;3.30;;;14.90;99.90;;;;;;4998445;28;21189;-80
2022/11/05 13:44:27;;;;;;;3.20;3.00;;;14.00;99.90;;;;;;5019001;28;20430;-78
2022/11/05 13:47:11;;;;;;;2.70;2.60;;;14.10;99.80;;;;;;5021307;28;20434;-78
2022/11/05 13:49:39;;;;;;;4.00;3.33;;;14.40;99.10;;;;;;5016210;28;20935;-79
2022/11/05 13:52:27;;;;;;;4.33;3.87;;;14.50;98.80;;;;;;5003456;28;20477;-80
2022/11/05 13:55:11;;;;;;;4.37;4.10;;;14.60;99.90;;;;;;5005115;28;20801;-79
2022/11/05 13:57:55;;;;;;;4.83;4.33;;;14.10;99.10;;;;;;5011784;28;20604;-79
2022/11/05 14:00:24;;;;;;;4.17;3.80;;;14.20;99.90;;;;;;4992667;28;20477;-80
2022/11/05 14:03:03;;;;;;;3.43;3.23;;;14.20;99.90;;;;;;4984257;28;20454;-78
2022/11/05 14:05:35;;;;;;;3.17;3.13;;;13.40;99.90;;;;;;4995253;28;20419;-78
2022/11/05 14:08:15;;;;;;;3.70;3.40;;;13.70;99.90;;;;;;5009712;28;20452;-79
2022/11/05 14:10:41;;;;;;;3.80;3.60;;;;;;;;;;4989086;28;20783;-79
2022/11/05 14:13:19;;;;;;;3.73;3.50;;;;;;;;;;5000150;28;20430;-78
2022/11/05 14:16:02;;;;;;;4.03;3.73;;;;;;;;;;5010480;28;20439;-78
2022/11/05 14:18:44;;;;;;;4.00;3.80;;;;;;;;;;5016450;28;20477;-79
2022/11/05 14:21:26;;;;;;;3.40;3.10;;;;;;;;;;5004876;28;20429;-81
2022/11/05 14:23:59;;;;;;;3.00;2.80;;;;;;;;;;5013586;28;20445;-80
2022/11/05 14:26:25;;;;;;;6.43;3.90;;;;;;;;;;5011343;28;20757;-81
2022/11/05 14:29:03;;;;;;;3.77;3.47;;;;;;;;;;5013668;28;20928;-79
2022/11/05 14:31:41;;;;;;;4.17;3.83;;;;;;;;;;4985124;28;20466;-80
2022/11/05 14:34:10;;;;;;;4.47;4.17;;;;;;;;;;5016505;28;20983;-81
2022/11/05 14:36:37;;;;;;;3.40;3.20;;;;;;;;;;4992719;28;20435;-79
2022/11/05 14:39:18;;;;;;;3.53;3.33;;;;;;;;;;5015441;28;20447;-79
2022/11/05 14:41:55;;;;;;;3.53;3.33;;;;;;;;;;5010114;28;20486;-80
2022/11/05 14:44:22;;;;;;;3.73;3.53;;;;;;;;;;4975820;28;20428;-78
2022/11/05 14:46:50;;;;;;;6.53;4.20;;;;;;;;;;5013219;28;20442;-81
2022/11/05 14:49:42;;;;;;;3.97;3.67;;;;;;;;;;5006394;28;20806;-81
2022/11/05 14:52:09;;;;;;;5.27;5.03;;;;;;;;;;4986388;28;20650;-79
2022/11/05 14:54:38;;;;;;;4.33;3.83;;;;;;;;;;5001834;28;20455;-79
2022/11/05 14:57:04;;;;;;;3.90;3.77;;;;;;;;;;5001122;28;20467;-80
2022/11/05 14:59:49;;;;;;;4.30;3.90;;;;;;;;;;5014722;28;20435;-79
2022/11/05 15:02:18;;;;;;;4.97;4.47;;;;;;;;;;4992525;28;20492;-81
2022/11/05 15:04:49;;;;;;;5.53;5.03;;;;;;;;;;5006572;28;20576;-80
2022/11/05 15:07:24;;;;;;;5.03;3.40;;;;;;;;;;5012413;28;20443;-79
2022/11/05 15:09:55;;;;;;;3.90;3.50;;;;;;;;;;5011475;28;20529;-81